TimeCST,TemperatureF,Dew PointF,Humidity,Sea Level PressureIn,VisibilityMPH,Wind Direction,Wind SpeedMPH,Gust SpeedMPH,PrecipitationIn,Events,Conditions,WindDirDegrees,DateUTC
12:15 AM,26.6,15.8,64,29.91,10.0,SSW,11.5,-,N/A,,Clear,200,2012-12-12 06:15:00
12:35 AM,26.6,15.8,64,29.90,10.0,SSW,11.5,-,N/A,,Clear,210,2012-12-12 06:35:00
12:55 AM,26.6,15.8,64,29.89,10.0,SSW,11.5,-,N/A,,Clear,200,2012-12-12 06:55:00
1:15 AM,26.6,15.8,64,29.89,10.0,SSW,10.4,-,N/A,,Clear,210,2012-12-12 07:15:00
1:55 AM,26.6,14.0,59,29.86,10.0,SSW,11.5,-,N/A,,Clear,200,2012-12-12 07:55:00
2:15 AM,26.6,14.0,59,29.86,10.0,SSW,11.5,-,N/A,,Clear,210,2012-12-12 08:15:00
2:35 AM,24.8,14.0,64,29.86,10.0,SSW,10.4,-,N/A,,Clear,210,2012-12-12 08:35:00
2:55 AM,23.0,14.0,68,29.86,10.0,SSW,10.4,-,N/A,,Clear,210,2012-12-12 08:55:00
3:15 AM,23.0,14.0,68,29.85,10.0,SSW,9.2,-,N/A,,Clear,210,2012-12-12 09:15:00
3:55 AM,23.0,14.0,68,29.84,10.0,SSW,11.5,-,N/A,,Clear,200,2012-12-12 09:55:00
4:15 AM,23.0,14.0,68,29.86,10.0,SW,10.4,-,N/A,,Clear,220,2012-12-12 10:15:00
4:35 AM,24.8,14.0,64,29.87,10.0,SSW,12.7,-,N/A,,Clear,210,2012-12-12 10:35:00
4:55 AM,23.0,12.2,63,29.86,10.0,SW,10.4,-,N/A,,Clear,220,2012-12-12 10:55:00
5:35 AM,23.0,12.2,63,29.85,10.0,SSW,9.2,-,N/A,,Clear,210,2012-12-12 11:35:00
5:55 AM,21.2,12.2,68,29.84,10.0,SW,9.2,-,N/A,,Clear,220,2012-12-12 11:55:00
6:15 AM,23.0,12.2,63,29.84,10.0,SSW,8.1,-,N/A,,Clear,210,2012-12-12 12:15:00
6:35 AM,21.2,12.2,68,29.84,10.0,SW,9.2,-,N/A,,Clear,220,2012-12-12 12:35:00
6:55 AM,23.0,12.2,63,29.85,10.0,South,10.4,-,N/A,,Clear,190,2012-12-12 12:55:00
7:15 AM,21.2,12.2,68,29.85,10.0,SSW,10.4,-,N/A,,Clear,200,2012-12-12 13:15:00
7:35 AM,23.0,12.2,63,29.86,10.0,SSW,12.7,-,N/A,,Clear,210,2012-12-12 13:35:00
7:55 AM,23.0,12.2,63,29.85,10.0,SSW,12.7,-,N/A,,Clear,200,2012-12-12 13:55:00
8:15 AM,23.0,12.2,63,29.85,10.0,SSW,9.2,-,N/A,,Clear,200,2012-12-12 14:15:00
8:35 AM,23.0,12.2,63,29.85,10.0,SSW,9.2,-,N/A,,Clear,210,2012-12-12 14:35:00
8:55 AM,24.8,12.2,59,29.85,10.0,SSW,11.5,-,N/A,,Clear,210,2012-12-12 14:55:00
9:15 AM,26.6,12.2,55,29.87,10.0,SSW,10.4,-,N/A,,Clear,210,2012-12-12 15:15:00
9:35 AM,28.4,14.0,55,29.88,10.0,SSW,11.5,-,N/A,,Clear,210,2012-12-12 15:35:00
9:55 AM,30.2,14.0,51,29.88,10.0,SSW,13.8,-,N/A,,Clear,210,2012-12-12 15:55:00
10:15 AM,32.0,17.6,55,29.87,10.0,SSW,11.5,-,N/A,,Clear,200,2012-12-12 16:15:00
10:35 AM,35.6,17.6,48,29.87,10.0,SSW,13.8,-,N/A,,Clear,210,2012-12-12 16:35:00
10:55 AM,39.2,19.4,45,29.87,10.0,SSW,10.4,-,N/A,,Clear,200,2012-12-12 16:55:00
11:15 AM,42.8,19.4,39,29.86,10.0,SSW,11.5,-,N/A,,Clear,200,2012-12-12 17:15:00
11:35 AM,44.6,19.4,37,29.85,10.0,South,10.4,-,N/A,,Clear,190,2012-12-12 17:35:00
11:55 AM,48.2,21.2,34,29.85,10.0,SSW,15.0,18.4,N/A,,Clear,210,2012-12-12 17:55:00
12:15 PM,50.0,21.2,32,29.85,10.0,SSW,17.3,-,N/A,,Clear,210,2012-12-12 18:15:00
12:35 PM,51.8,21.2,30,29.84,10.0,South,15.0,-,N/A,,Clear,190,2012-12-12 18:35:00
12:55 PM,53.6,21.2,28,29.84,10.0,SSW,16.1,21.9,N/A,,Clear,200,2012-12-12 18:55:00
1:15 PM,53.6,21.2,28,29.82,10.0,SSW,15.0,-,N/A,,Clear,200,2012-12-12 19:15:00
1:35 PM,55.4,23.0,29,29.81,10.0,South,13.8,-,N/A,,Clear,190,2012-12-12 19:35:00
1:55 PM,53.6,21.2,28,29.81,10.0,South,13.8,-,N/A,,Clear,180,2012-12-12 19:55:00
2:15 PM,55.4,23.0,29,29.80,10.0,South,13.8,-,N/A,,Clear,170,2012-12-12 20:15:00
2:35 PM,57.2,23.0,27,29.80,10.0,South,15.0,19.6,N/A,,Clear,180,2012-12-12 20:35:00
3:15 PM,57.2,23.0,27,29.80,10.0,South,18.4,21.9,N/A,,Clear,170,2012-12-12 21:15:00
3:35 PM,55.4,23.0,29,29.79,10.0,South,18.4,24.2,N/A,,Clear,170,2012-12-12 21:35:00
3:55 PM,53.6,23.0,30,29.79,10.0,South,15.0,-,N/A,,Clear,170,2012-12-12 21:55:00
4:15 PM,51.8,21.2,30,29.80,10.0,SSE,15.0,-,N/A,,Clear,160,2012-12-12 22:15:00
4:35 PM,51.8,21.2,30,29.80,10.0,SSE,16.1,-,N/A,,Clear,160,2012-12-12 22:35:00
4:55 PM,50.0,21.2,32,29.80,10.0,SSE,15.0,-,N/A,,Clear,160,2012-12-12 22:55:00
5:15 PM,48.2,21.2,34,29.81,10.0,South,15.0,-,N/A,,Clear,170,2012-12-12 23:15:00
5:55 PM,46.4,19.4,34,29.82,10.0,South,15.0,20.7,N/A,,Clear,170,2012-12-12 23:55:00
6:15 PM,46.4,19.4,34,29.82,10.0,South,15.0,20.7,N/A,,Clear,180,2012-12-13 00:15:00
6:35 PM,44.6,19.4,37,29.84,10.0,South,16.1,-,N/A,,Clear,190,2012-12-13 00:35:00
7:15 PM,44.6,19.4,37,29.84,10.0,South,15.0,21.9,N/A,,Clear,190,2012-12-13 01:15:00
7:35 PM,42.8,19.4,39,29.84,10.0,South,17.3,23.0,N/A,,Clear,190,2012-12-13 01:35:00
7:55 PM,42.8,19.4,39,29.85,10.0,South,12.7,20.7,N/A,,Clear,190,2012-12-13 01:55:00
8:15 PM,42.8,19.4,39,29.85,10.0,South,11.5,-,N/A,,Clear,190,2012-12-13 02:15:00
8:35 PM,41.0,19.4,42,29.85,10.0,SSW,13.8,17.3,N/A,,Clear,200,2012-12-13 02:35:00
8:55 PM,39.2,17.6,42,29.85,10.0,SSW,10.4,-,N/A,,Clear,200,2012-12-13 02:55:00
9:15 PM,37.4,17.6,45,29.86,10.0,SSW,12.7,-,N/A,,Clear,200,2012-12-13 03:15:00
9:35 PM,39.2,19.4,45,29.86,10.0,SSW,13.8,-,N/A,,Clear,200,2012-12-13 03:35:00
9:55 PM,37.4,19.4,48,29.86,10.0,SSW,10.4,-,N/A,,Clear,200,2012-12-13 03:55:00
10:15 PM,39.2,19.4,45,29.86,10.0,SSW,9.2,-,N/A,,Clear,200,2012-12-13 04:15:00
10:35 PM,41.0,19.4,42,29.86,10.0,SSW,8.1,-,N/A,,Clear,200,2012-12-13 04:35:00
10:55 PM,37.4,19.4,48,29.86,10.0,SW,6.9,-,N/A,,Clear,220,2012-12-13 04:55:00
11:15 PM,35.6,17.6,48,29.87,10.0,SW,6.9,-,N/A,,Clear,220,2012-12-13 05:15:00
11:35 PM,35.6,19.4,52,29.87,10.0,SW,8.1,-,N/A,,Clear,230,2012-12-13 05:35:00
11:55 PM,33.8,17.6,52,29.88,10.0,WSW,8.1,-,N/A,,Clear,250,2012-12-13 05:55:00